sensor_id;sensor_type;location;lat;lon;timestamp;P1;durP1;ratioP1;P2;durP2;ratioP2
846;SDS011;410;48.954;9.474;2024-02-26T00:01:52;5.18;;;3.28;;
846;SDS011;410;48.954;9.474;2024-02-26T00:03:55;6.13;;;3.70;;
846;SDS011;410;48.954;9.474;2024-02-26T00:06:01;4.80;;;3.33;;
846;SDS011;410;48.954;9.474;2024-02-26T00:08:06;5.00;;;3.20;;
846;SDS011;410;48.954;9.474;2024-02-26T00:10:09;6.00;;;3.40;;
846;SDS011;410;48.954;9.474;2024-02-26T00:12:12;4.65;;;3.20;;
846;SDS011;410;48.954;9.474;2024-02-26T00:14:15;4.88;;;3.38;;
846;SDS011;410;48.954;9.474;2024-02-26T00:16:18;5.53;;;3.15;;
846;SDS011;410;48.954;9.474;2024-02-26T00:18:21;4.38;;;2.95;;
846;SDS011;410;48.954;9.474;2024-02-26T00:20:25;5.20;;;3.25;;
846;SDS011;410;48.954;9.474;2024-02-26T00:22:28;5.65;;;3.60;;
846;SDS011;410;48.954;9.474;2024-02-26T00:24:33;5.97;;;3.60;;
846;SDS011;410;48.954;9.474;2024-02-26T00:26:36;4.15;;;2.80;;
846;SDS011;410;48.954;9.474;2024-02-26T00:28:39;5.20;;;3.10;;
846;SDS011;410;48.954;9.474;2024-02-26T00:30:42;4.05;;;2.97;;
846;SDS011;410;48.954;9.474;2024-02-26T00:32:45;3.75;;;3.08;;
846;SDS011;410;48.954;9.474;2024-02-26T00:34:49;4.50;;;3.00;;
846;SDS011;410;48.954;9.474;2024-02-26T00:36:52;3.97;;;3.17;;
846;SDS011;410;48.954;9.474;2024-02-26T00:38:56;4.28;;;3.15;;
846;SDS011;410;48.954;9.474;2024-02-26T00:41:00;4.80;;;2.50;;
846;SDS011;410;48.954;9.474;2024-02-26T00:43:03;4.63;;;3.33;;
846;SDS011;410;48.954;9.474;2024-02-26T00:45:07;3.00;;;2.55;;
846;SDS011;410;48.954;9.474;2024-02-26T00:47:10;5.83;;;3.30;;
846;SDS011;410;48.954;9.474;2024-02-26T00:49:13;4.60;;;3.50;;
846;SDS011;410;48.954;9.474;2024-02-26T00:51:16;4.55;;;3.47;;
846;SDS011;410;48.954;9.474;2024-02-26T00:53:22;8.07;;;4.97;;
846;SDS011;410;48.954;9.474;2024-02-26T00:55:26;7.10;;;4.80;;
846;SDS011;410;48.954;9.474;2024-02-26T00:57:31;6.32;;;4.75;;
846;SDS011;410;48.954;9.474;2024-02-26T00:59:34;6.15;;;4.85;;
846;SDS011;410;48.954;9.474;2024-02-26T01:01:38;7.78;;;4.78;;
846;SDS011;410;48.954;9.474;2024-02-26T01:03:41;6.38;;;4.20;;
846;SDS011;410;48.954;9.474;2024-02-26T01:05:44;8.55;;;3.75;;
846;SDS011;410;48.954;9.474;2024-02-26T01:07:48;7.25;;;4.07;;
846;SDS011;410;48.954;9.474;2024-02-26T01:09:51;4.40;;;3.40;;
846;SDS011;410;48.954;9.474;2024-02-26T01:11:54;7.83;;;4.47;;
846;SDS011;410;48.954;9.474;2024-02-26T01:13:59;7.32;;;4.00;;
846;SDS011;410;48.954;9.474;2024-02-26T01:16:05;5.18;;;3.60;;
846;SDS011;410;48.954;9.474;2024-02-26T01:18:09;5.80;;;3.40;;
846;SDS011;410;48.954;9.474;2024-02-26T01:20:13;3.88;;;2.95;;
846;SDS011;410;48.954;9.474;2024-02-26T01:22:16;5.13;;;2.92;;
846;SDS011;410;48.954;9.474;2024-02-26T01:24:19;5.17;;;3.00;;
846;SDS011;410;48.954;9.474;2024-02-26T01:26:23;4.22;;;3.00;;
846;SDS011;410;48.954;9.474;2024-02-26T01:28:26;4.90;;;3.08;;
846;SDS011;410;48.954;9.474;2024-02-26T01:30:30;3.97;;;2.80;;
846;SDS011;410;48.954;9.474;2024-02-26T01:32:34;3.90;;;2.85;;
846;SDS011;410;48.954;9.474;2024-02-26T01:34:38;4.43;;;3.10;;
846;SDS011;410;48.954;9.474;2024-02-26T01:36:42;4.43;;;2.93;;
846;SDS011;410;48.954;9.474;2024-02-26T01:38:45;5.78;;;2.83;;
846;SDS011;410;48.954;9.474;2024-02-26T01:40:49;4.43;;;2.92;;
846;SDS011;410;48.954;9.474;2024-02-26T01:42:52;4.27;;;2.90;;
846;SDS011;410;48.954;9.474;2024-02-26T01:44:55;4.82;;;3.28;;
846;SDS011;410;48.954;9.474;2024-02-26T01:47:00;4.53;;;3.05;;
846;SDS011;410;48.954;9.474;2024-02-26T01:49:04;4.73;;;3.40;;
846;SDS011;410;48.954;9.474;2024-02-26T01:51:10;5.20;;;3.17;;
846;SDS011;410;48.954;9.474;2024-02-26T01:53:14;3.75;;;2.90;;
846;SDS011;410;48.954;9.474;2024-02-26T01:55:17;5.60;;;3.30;;
846;SDS011;410;48.954;9.474;2024-02-26T01:57:21;4.40;;;2.83;;
846;SDS011;410;48.954;9.474;2024-02-26T01:59:25;4.57;;;3.03;;
846;SDS011;410;48.954;9.474;2024-02-26T02:01:29;3.80;;;2.95;;
846;SDS011;410;48.954;9.474;2024-02-26T02:03:34;4.07;;;3.30;;
846;SDS011;410;48.954;9.474;2024-02-26T02:05:38;5.00;;;3.20;;
846;SDS011;410;48.954;9.474;2024-02-26T02:07:44;3.72;;;3.17;;
846;SDS011;410;48.954;9.474;2024-02-26T02:09:48;6.53;;;3.03;;
846;SDS011;410;48.954;9.474;2024-02-26T02:11:51;4.47;;;3.40;;
846;SDS011;410;48.954;9.474;2024-02-26T02:13:55;3.75;;;2.83;;
846;SDS011;410;48.954;9.474;2024-02-26T02:15:58;5.00;;;3.10;;
846;SDS011;410;48.954;9.474;2024-02-26T02:18:01;6.18;;;2.92;;
846;SDS011;410;48.954;9.474;2024-02-26T02:20:09;4.07;;;2.95;;
846;SDS011;410;48.954;9.474;2024-02-26T02:22:18;4.75;;;2.90;;
846;SDS011;410;48.954;9.474;2024-02-26T02:24:22;4.75;;;3.25;;
846;SDS011;410;48.954;9.474;2024-02-26T02:26:25;4.80;;;3.10;;
846;SDS011;410;48.954;9.474;2024-02-26T02:28:32;4.47;;;3.00;;
846;SDS011;410;48.954;9.474;2024-02-26T02:30:34;3.88;;;3.33;;
846;SDS011;410;48.954;9.474;2024-02-26T02:32:37;3.83;;;2.90;;
846;SDS011;410;48.954;9.474;2024-02-26T02:34:43;3.90;;;2.70;;
846;SDS011;410;48.954;9.474;2024-02-26T02:36:51;3.92;;;2.85;;
846;SDS011;410;48.954;9.474;2024-02-26T02:38:55;3.65;;;2.70;;
846;SDS011;410;48.954;9.474;2024-02-26T02:40:59;4.05;;;2.50;;
846;SDS011;410;48.954;9.474;2024-02-26T02:43:02;4.20;;;2.93;;
846;SDS011;410;48.954;9.474;2024-02-26T02:45:06;3.60;;;2.85;;
846;SDS011;410;48.954;9.474;2024-02-26T02:47:10;5.53;;;3.03;;
846;SDS011;410;48.954;9.474;2024-02-26T02:49:12;4.95;;;2.90;;
846;SDS011;410;48.954;9.474;2024-02-26T02:51:16;4.07;;;2.65;;
846;SDS011;410;48.954;9.474;2024-02-26T02:53:19;3.58;;;2.45;;
846;SDS011;410;48.954;9.474;2024-02-26T02:55:25;4.03;;;2.50;;
846;SDS011;410;48.954;9.474;2024-02-26T02:57:29;3.95;;;2.60;;
846;SDS011;410;48.954;9.474;2024-02-26T02:59:32;3.67;;;2.28;;
846;SDS011;410;48.954;9.474;2024-02-26T03:01:35;3.08;;;2.15;;
846;SDS011;410;48.954;9.474;2024-02-26T03:03:38;3.55;;;2.30;;
846;SDS011;410;48.954;9.474;2024-02-26T03:05:41;4.60;;;2.10;;
846;SDS011;410;48.954;9.474;2024-02-26T03:07:44;3.40;;;2.50;;
846;SDS011;410;48.954;9.474;2024-02-26T03:09:47;3.83;;;2.40;;
846;SDS011;410;48.954;9.474;2024-02-26T03:11:52;2.72;;;1.90;;
846;SDS011;410;48.954;9.474;2024-02-26T03:13:56;2.93;;;1.83;;
846;SDS011;410;48.954;9.474;2024-02-26T03:16:03;3.73;;;2.10;;
846;SDS011;410;48.954;9.474;2024-02-26T03:18:07;3.30;;;2.27;;
846;SDS011;410;48.954;9.474;2024-02-26T03:20:11;4.77;;;3.20;;
846;SDS011;410;48.954;9.474;2024-02-26T03:22:14;4.18;;;2.92;;
846;SDS011;410;48.954;9.474;2024-02-26T03:24:17;3.08;;;2.50;;
846;SDS011;410;48.954;9.474;2024-02-26T03:26:21;5.93;;;2.53;;
846;SDS011;410;48.954;9.474;2024-02-26T03:28:24;6.30;;;2.88;;
846;SDS011;410;48.954;9.474;2024-02-26T03:30:27;3.85;;;3.10;;
846;SDS011;410;48.954;9.474;2024-02-26T03:32:31;3.20;;;2.50;;
846;SDS011;410;48.954;9.474;2024-02-26T03:34:34;3.50;;;2.70;;
846;SDS011;410;48.954;9.474;2024-02-26T03:36:38;4.40;;;2.83;;
846;SDS011;410;48.954;9.474;2024-02-26T03:38:42;4.10;;;3.20;;
846;SDS011;410;48.954;9.474;2024-02-26T03:40:45;5.37;;;3.10;;
846;SDS011;410;48.954;9.474;2024-02-26T03:42:48;3.97;;;2.60;;
846;SDS011;410;48.954;9.474;2024-02-26T03:44:53;7.43;;;3.10;;
846;SDS011;410;48.954;9.474;2024-02-26T03:46:57;4.40;;;2.33;;
846;SDS011;410;48.954;9.474;2024-02-26T03:49:00;3.87;;;2.90;;
846;SDS011;410;48.954;9.474;2024-02-26T03:51:03;4.30;;;2.97;;
846;SDS011;410;48.954;9.474;2024-02-26T03:53:06;5.30;;;2.90;;
846;SDS011;410;48.954;9.474;2024-02-26T03:55:15;4.15;;;2.85;;
846;SDS011;410;48.954;9.474;2024-02-26T03:57:20;3.60;;;3.10;;
846;SDS011;410;48.954;9.474;2024-02-26T03:59:23;4.30;;;3.08;;
846;SDS011;410;48.954;9.474;2024-02-26T04:01:28;4.40;;;3.23;;
846;SDS011;410;48.954;9.474;2024-02-26T04:03:30;5.72;;;3.00;;
846;SDS011;410;48.954;9.474;2024-02-26T04:05:33;5.57;;;3.70;;
846;SDS011;410;48.954;9.474;2024-02-26T04:07:36;4.80;;;3.30;;
846;SDS011;410;48.954;9.474;2024-02-26T04:09:40;3.97;;;3.10;;
846;SDS011;410;48.954;9.474;2024-02-26T04:11:43;8.15;;;4.07;;
846;SDS011;410;48.954;9.474;2024-02-26T04:13:47;4.38;;;3.17;;
846;SDS011;410;48.954;9.474;2024-02-26T04:15:54;3.70;;;2.83;;
846;SDS011;410;48.954;9.474;2024-02-26T04:17:59;2.75;;;2.15;;
846;SDS011;410;48.954;9.474;2024-02-26T04:20:02;4.05;;;2.20;;
846;SDS011;410;48.954;9.474;2024-02-26T04:22:07;3.78;;;2.65;;
846;SDS011;410;48.954;9.474;2024-02-26T04:24:10;3.78;;;2.47;;
846;SDS011;410;48.954;9.474;2024-02-26T04:26:14;3.35;;;2.40;;
846;SDS011;410;48.954;9.474;2024-02-26T04:28:17;3.03;;;2.38;;
846;SDS011;410;48.954;9.474;2024-02-26T04:30:22;3.03;;;2.30;;
846;SDS011;410;48.954;9.474;2024-02-26T04:32:25;5.40;;;3.40;;
846;SDS011;410;48.954;9.474;2024-02-26T04:34:31;4.47;;;3.50;;
846;SDS011;410;48.954;9.474;2024-02-26T04:36:34;4.10;;;3.47;;
846;SDS011;410;48.954;9.474;2024-02-26T04:38:37;5.03;;;3.00;;
846;SDS011;410;48.954;9.474;2024-02-26T04:40:40;4.22;;;2.15;;
846;SDS011;410;48.954;9.474;2024-02-26T04:42:44;4.82;;;2.60;;
846;SDS011;410;48.954;9.474;2024-02-26T04:44:46;4.30;;;2.97;;
846;SDS011;410;48.954;9.474;2024-02-26T04:46:49;3.60;;;2.80;;
846;SDS011;410;48.954;9.474;2024-02-26T04:48:53;4.25;;;3.20;;
846;SDS011;410;48.954;9.474;2024-02-26T04:51:00;7.20;;;3.80;;
846;SDS011;410;48.954;9.474;2024-02-26T04:53:03;5.00;;;3.75;;
846;SDS011;410;48.954;9.474;2024-02-26T04:55:07;5.78;;;3.53;;
846;SDS011;410;48.954;9.474;2024-02-26T04:57:10;4.10;;;3.10;;
846;SDS011;410;48.954;9.474;2024-02-26T04:59:14;4.90;;;3.53;;
846;SDS011;410;48.954;9.474;2024-02-26T05:01:17;4.30;;;3.50;;
846;SDS011;410;48.954;9.474;2024-02-26T05:03:21;6.68;;;3.35;;
846;SDS011;410;48.954;9.474;2024-02-26T05:05:24;5.80;;;3.63;;
846;SDS011;410;48.954;9.474;2024-02-26T05:07:29;5.07;;;3.45;;
846;SDS011;410;48.954;9.474;2024-02-26T05:09:32;4.78;;;2.92;;
846;SDS011;410;48.954;9.474;2024-02-26T05:11:36;4.85;;;2.45;;
846;SDS011;410;48.954;9.474;2024-02-26T05:13:43;4.45;;;2.38;;
846;SDS011;410;48.954;9.474;2024-02-26T05:15:47;2.97;;;1.48;;
846;SDS011;410;48.954;9.474;2024-02-26T05:17:54;4.32;;;2.13;;
846;SDS011;410;48.954;9.474;2024-02-26T05:19:56;3.47;;;1.70;;
846;SDS011;410;48.954;9.474;2024-02-26T05:22:00;3.53;;;2.15;;
846;SDS011;410;48.954;9.474;2024-02-26T05:24:05;5.05;;;3.38;;
846;SDS011;410;48.954;9.474;2024-02-26T05:26:09;4.07;;;2.83;;
846;SDS011;410;48.954;9.474;2024-02-26T05:28:11;3.08;;;2.47;;
846;SDS011;410;48.954;9.474;2024-02-26T05:30:17;5.18;;;2.72;;
846;SDS011;410;48.954;9.474;2024-02-26T05:32:20;2.67;;;2.10;;
846;SDS011;410;48.954;9.474;2024-02-26T05:34:23;3.65;;;2.30;;
846;SDS011;410;48.954;9.474;2024-02-26T05:36:27;4.07;;;2.57;;
846;SDS011;410;48.954;9.474;2024-02-26T05:38:34;3.00;;;2.57;;
846;SDS011;410;48.954;9.474;2024-02-26T05:40:39;3.60;;;2.58;;
846;SDS011;410;48.954;9.474;2024-02-26T05:42:43;3.33;;;2.60;;
846;SDS011;410;48.954;9.474;2024-02-26T05:44:46;5.00;;;3.17;;
846;SDS011;410;48.954;9.474;2024-02-26T05:46:50;3.63;;;2.40;;
846;SDS011;410;48.954;9.474;2024-02-26T05:48:53;4.55;;;3.10;;
846;SDS011;410;48.954;9.474;2024-02-26T05:50:56;3.27;;;2.37;;
846;SDS011;410;48.954;9.474;2024-02-26T05:53:00;4.10;;;2.75;;
846;SDS011;410;48.954;9.474;2024-02-26T05:55:04;3.73;;;3.17;;
846;SDS011;410;48.954;9.474;2024-02-26T05:57:09;4.70;;;3.63;;
846;SDS011;410;48.954;9.474;2024-02-26T05:59:14;5.57;;;3.70;;
846;SDS011;410;48.954;9.474;2024-02-26T06:01:18;4.28;;;3.45;;
846;SDS011;410;48.954;9.474;2024-02-26T06:03:21;5.85;;;5.25;;
846;SDS011;410;48.954;9.474;2024-02-26T06:05:24;6.32;;;4.22;;
846;SDS011;410;48.954;9.474;2024-02-26T06:07:28;4.88;;;3.38;;
846;SDS011;410;48.954;9.474;2024-02-26T06:09:31;5.60;;;3.47;;
846;SDS011;410;48.954;9.474;2024-02-26T06:11:34;4.57;;;2.85;;
846;SDS011;410;48.954;9.474;2024-02-26T06:13:39;3.17;;;2.22;;
846;SDS011;410;48.954;9.474;2024-02-26T06:15:42;4.50;;;2.93;;
846;SDS011;410;48.954;9.474;2024-02-26T06:17:46;3.80;;;2.58;;
846;SDS011;410;48.954;9.474;2024-02-26T06:19:49;3.80;;;2.90;;
846;SDS011;410;48.954;9.474;2024-02-26T06:21:53;4.40;;;3.10;;
846;SDS011;410;48.954;9.474;2024-02-26T06:23:56;4.78;;;3.10;;
846;SDS011;410;48.954;9.474;2024-02-26T06:26:01;5.03;;;3.05;;
846;SDS011;410;48.954;9.474;2024-02-26T06:28:03;4.10;;;2.90;;
846;SDS011;410;48.954;9.474;2024-02-26T06:30:09;5.53;;;3.35;;
846;SDS011;410;48.954;9.474;2024-02-26T06:32:13;3.30;;;2.67;;
846;SDS011;410;48.954;9.474;2024-02-26T06:34:16;4.30;;;3.40;;
846;SDS011;410;48.954;9.474;2024-02-26T06:36:20;5.45;;;3.80;;
846;SDS011;410;48.954;9.474;2024-02-26T06:38:23;5.15;;;3.08;;
846;SDS011;410;48.954;9.474;2024-02-26T06:40:27;4.75;;;3.38;;
846;SDS011;410;48.954;9.474;2024-02-26T06:42:30;4.03;;;2.80;;
846;SDS011;410;48.954;9.474;2024-02-26T06:44:33;6.87;;;3.37;;
846;SDS011;410;48.954;9.474;2024-02-26T06:46:38;4.75;;;3.35;;
846;SDS011;410;48.954;9.474;2024-02-26T06:48:41;4.60;;;3.10;;
846;SDS011;410;48.954;9.474;2024-02-26T06:50:44;4.65;;;3.03;;
846;SDS011;410;48.954;9.474;2024-02-26T06:52:47;3.78;;;3.00;;
846;SDS011;410;48.954;9.474;2024-02-26T06:54:51;4.43;;;2.93;;
846;SDS011;410;48.954;9.474;2024-02-26T06:56:55;3.65;;;2.63;;
846;SDS011;410;48.954;9.474;2024-02-26T06:58:58;3.25;;;2.65;;
846;SDS011;410;48.954;9.474;2024-02-26T07:01:01;4.80;;;2.83;;
846;SDS011;410;48.954;9.474;2024-02-26T07:03:06;4.93;;;3.23;;
846;SDS011;410;48.954;9.474;2024-02-26T07:05:09;4.00;;;2.97;;
846;SDS011;410;48.954;9.474;2024-02-26T07:07:14;8.07;;;6.10;;
846;SDS011;410;48.954;9.474;2024-02-26T07:09:19;25.00;;;18.02;;
846;SDS011;410;48.954;9.474;2024-02-26T07:11:23;6.97;;;4.55;;
846;SDS011;410;48.954;9.474;2024-02-26T07:13:26;4.90;;;4.00;;
846;SDS011;410;48.954;9.474;2024-02-26T07:15:30;3.60;;;3.20;;
846;SDS011;410;48.954;9.474;2024-02-26T07:17:33;4.00;;;3.50;;
846;SDS011;410;48.954;9.474;2024-02-26T07:19:38;4.83;;;3.47;;
846;SDS011;410;48.954;9.474;2024-02-26T07:21:45;3.88;;;3.17;;
846;SDS011;410;48.954;9.474;2024-02-26T07:23:48;5.57;;;2.80;;
846;SDS011;410;48.954;9.474;2024-02-26T07:25:51;5.50;;;3.22;;
846;SDS011;410;48.954;9.474;2024-02-26T07:27:55;3.83;;;2.80;;
846;SDS011;410;48.954;9.474;2024-02-26T07:29:58;6.63;;;4.03;;
846;SDS011;410;48.954;9.474;2024-02-26T07:32:01;3.80;;;3.25;;
846;SDS011;410;48.954;9.474;2024-02-26T07:34:04;5.47;;;3.53;;
846;SDS011;410;48.954;9.474;2024-02-26T07:36:09;4.27;;;3.10;;
846;SDS011;410;48.954;9.474;2024-02-26T07:38:12;4.30;;;3.30;;
846;SDS011;410;48.954;9.474;2024-02-26T07:40:32;5.07;;;3.53;;
846;SDS011;410;48.954;9.474;2024-02-26T07:42:35;5.10;;;3.75;;
846;SDS011;410;48.954;9.474;2024-02-26T07:44:39;4.57;;;2.90;;
846;SDS011;410;48.954;9.474;2024-02-26T07:46:44;6.85;;;3.90;;
846;SDS011;410;48.954;9.474;2024-02-26T07:48:47;4.40;;;3.35;;
846;SDS011;410;48.954;9.474;2024-02-26T07:50:51;6.03;;;3.97;;
846;SDS011;410;48.954;9.474;2024-02-26T07:52:57;4.27;;;2.90;;
846;SDS011;410;48.954;9.474;2024-02-26T07:55:00;4.23;;;3.23;;
846;SDS011;410;48.954;9.474;2024-02-26T07:57:08;4.37;;;3.20;;
846;SDS011;410;48.954;9.474;2024-02-26T07:59:11;5.95;;;3.58;;
846;SDS011;410;48.954;9.474;2024-02-26T08:01:14;5.60;;;4.10;;
846;SDS011;410;48.954;9.474;2024-02-26T08:03:18;6.43;;;4.17;;
846;SDS011;410;48.954;9.474;2024-02-26T08:05:21;5.60;;;4.00;;
846;SDS011;410;48.954;9.474;2024-02-26T08:07:24;5.68;;;4.15;;
846;SDS011;410;48.954;9.474;2024-02-26T08:09:29;6.57;;;4.70;;
846;SDS011;410;48.954;9.474;2024-02-26T08:11:32;7.10;;;4.95;;
846;SDS011;410;48.954;9.474;2024-02-26T08:13:36;6.47;;;4.80;;
846;SDS011;410;48.954;9.474;2024-02-26T08:15:39;6.00;;;5.00;;
846;SDS011;410;48.954;9.474;2024-02-26T08:17:42;8.18;;;5.25;;
846;SDS011;410;48.954;9.474;2024-02-26T08:19:44;7.50;;;5.10;;
846;SDS011;410;48.954;9.474;2024-02-26T08:21:47;6.60;;;5.53;;
846;SDS011;410;48.954;9.474;2024-02-26T08:23:50;7.47;;;5.63;;
846;SDS011;410;48.954;9.474;2024-02-26T08:25:54;7.47;;;5.80;;
846;SDS011;410;48.954;9.474;2024-02-26T08:27:58;6.10;;;5.20;;
846;SDS011;410;48.954;9.474;2024-02-26T08:30:01;6.57;;;5.10;;
846;SDS011;410;48.954;9.474;2024-02-26T08:32:05;5.97;;;4.50;;
846;SDS011;410;48.954;9.474;2024-02-26T08:34:09;7.90;;;5.60;;
846;SDS011;410;48.954;9.474;2024-02-26T08:36:12;5.00;;;4.50;;
846;SDS011;410;48.954;9.474;2024-02-26T08:38:16;7.57;;;5.40;;
846;SDS011;410;48.954;9.474;2024-02-26T08:40:19;9.45;;;6.30;;
846;SDS011;410;48.954;9.474;2024-02-26T08:42:24;6.97;;;5.80;;
846;SDS011;410;48.954;9.474;2024-02-26T08:44:27;6.13;;;4.87;;
846;SDS011;410;48.954;9.474;2024-02-26T08:46:30;5.60;;;4.33;;
846;SDS011;410;48.954;9.474;2024-02-26T08:48:33;5.03;;;4.00;;
846;SDS011;410;48.954;9.474;2024-02-26T08:50:37;5.13;;;4.40;;
846;SDS011;410;48.954;9.474;2024-02-26T08:52:40;5.10;;;4.17;;
846;SDS011;410;48.954;9.474;2024-02-26T08:54:43;4.90;;;4.40;;
846;SDS011;410;48.954;9.474;2024-02-26T08:56:46;7.63;;;5.00;;
846;SDS011;410;48.954;9.474;2024-02-26T08:58:51;9.07;;;5.47;;
846;SDS011;410;48.954;9.474;2024-02-26T09:00:55;7.07;;;5.27;;
846;SDS011;410;48.954;9.474;2024-02-26T09:02:58;5.50;;;4.90;;
846;SDS011;410;48.954;9.474;2024-02-26T09:05:06;5.20;;;4.63;;
846;SDS011;410;48.954;9.474;2024-02-26T09:07:10;6.07;;;4.83;;
846;SDS011;410;48.954;9.474;2024-02-26T09:09:13;6.60;;;4.70;;
846;SDS011;410;48.954;9.474;2024-02-26T09:11:16;6.80;;;5.53;;
846;SDS011;410;48.954;9.474;2024-02-26T09:13:19;7.80;;;5.50;;
846;SDS011;410;48.954;9.474;2024-02-26T09:15:24;7.10;;;5.60;;
846;SDS011;410;48.954;9.474;2024-02-26T09:17:28;6.80;;;4.97;;
846;SDS011;410;48.954;9.474;2024-02-26T09:19:31;8.17;;;5.17;;
846;SDS011;410;48.954;9.474;2024-02-26T09:21:35;6.77;;;5.00;;
846;SDS011;410;48.954;9.474;2024-02-26T09:23:38;8.03;;;5.33;;
846;SDS011;410;48.954;9.474;2024-02-26T09:25:42;6.67;;;5.20;;
846;SDS011;410;48.954;9.474;2024-02-26T09:27:45;6.90;;;4.90;;
846;SDS011;410;48.954;9.474;2024-02-26T09:29:49;5.27;;;4.10;;
846;SDS011;410;48.954;9.474;2024-02-26T09:31:53;4.77;;;4.27;;
846;SDS011;410;48.954;9.474;2024-02-26T09:33:57;5.23;;;4.37;;
846;SDS011;410;48.954;9.474;2024-02-26T09:36:03;7.73;;;4.60;;
846;SDS011;410;48.954;9.474;2024-02-26T09:38:08;5.53;;;4.40;;
846;SDS011;410;48.954;9.474;2024-02-26T09:40:11;6.00;;;4.60;;
846;SDS011;410;48.954;9.474;2024-02-26T09:42:14;6.93;;;4.23;;
846;SDS011;410;48.954;9.474;2024-02-26T09:44:18;5.30;;;4.00;;
846;SDS011;410;48.954;9.474;2024-02-26T09:46:23;5.53;;;3.83;;
846;SDS011;410;48.954;9.474;2024-02-26T09:48:28;6.70;;;4.10;;
846;SDS011;410;48.954;9.474;2024-02-26T09:50:32;6.10;;;4.73;;
846;SDS011;410;48.954;9.474;2024-02-26T09:52:36;6.47;;;4.50;;
846;SDS011;410;48.954;9.474;2024-02-26T09:54:40;4.90;;;3.90;;
846;SDS011;410;48.954;9.474;2024-02-26T09:56:44;4.90;;;4.00;;
846;SDS011;410;48.954;9.474;2024-02-26T09:59:04;6.17;;;4.40;;
846;SDS011;410;48.954;9.474;2024-02-26T10:01:10;5.33;;;4.10;;
846;SDS011;410;48.954;9.474;2024-02-26T10:03:16;6.13;;;3.97;;
846;SDS011;410;48.954;9.474;2024-02-26T10:05:24;5.20;;;4.23;;
846;SDS011;410;48.954;9.474;2024-02-26T10:07:28;4.57;;;3.00;;
846;SDS011;410;48.954;9.474;2024-02-26T10:09:31;5.57;;;3.47;;
846;SDS011;410;48.954;9.474;2024-02-26T10:11:35;5.93;;;2.80;;
846;SDS011;410;48.954;9.474;2024-02-26T10:13:38;7.67;;;3.90;;
846;SDS011;410;48.954;9.474;2024-02-26T10:15:41;5.63;;;3.30;;
846;SDS011;410;48.954;9.474;2024-02-26T10:17:45;8.10;;;5.90;;
846;SDS011;410;48.954;9.474;2024-02-26T10:19:51;5.00;;;3.77;;
846;SDS011;410;48.954;9.474;2024-02-26T10:22:00;6.70;;;4.83;;
846;SDS011;410;48.954;9.474;2024-02-26T10:24:05;6.00;;;4.17;;
846;SDS011;410;48.954;9.474;2024-02-26T10:26:16;5.77;;;4.03;;
846;SDS011;410;48.954;9.474;2024-02-26T10:28:20;5.77;;;2.90;;
846;SDS011;410;48.954;9.474;2024-02-26T10:30:23;3.47;;;2.90;;
846;SDS011;410;48.954;9.474;2024-02-26T10:32:27;3.50;;;2.63;;
846;SDS011;410;48.954;9.474;2024-02-26T10:34:31;4.73;;;3.87;;
846;SDS011;410;48.954;9.474;2024-02-26T10:36:34;3.23;;;2.37;;
846;SDS011;410;48.954;9.474;2024-02-26T10:38:54;3.20;;;2.20;;
846;SDS011;410;48.954;9.474;2024-02-26T10:40:58;3.70;;;2.77;;
846;SDS011;410;48.954;9.474;2024-02-26T10:43:01;3.80;;;2.70;;
846;SDS011;410;48.954;9.474;2024-02-26T10:45:05;3.93;;;2.97;;
846;SDS011;410;48.954;9.474;2024-02-26T10:47:10;4.10;;;2.73;;
846;SDS011;410;48.954;9.474;2024-02-26T10:49:15;4.97;;;3.97;;
846;SDS011;410;48.954;9.474;2024-02-26T10:51:25;3.63;;;2.73;;
846;SDS011;410;48.954;9.474;2024-02-26T10:53:31;9.63;;;8.63;;
846;SDS011;410;48.954;9.474;2024-02-26T10:55:36;3.00;;;1.70;;
846;SDS011;410;48.954;9.474;2024-02-26T10:57:40;2.30;;;1.40;;
846;SDS011;410;48.954;9.474;2024-02-26T10:59:46;2.60;;;1.47;;
846;SDS011;410;48.954;9.474;2024-02-26T11:01:50;3.77;;;2.47;;
846;SDS011;410;48.954;9.474;2024-02-26T11:03:54;2.90;;;1.73;;
846;SDS011;410;48.954;9.474;2024-02-26T11:06:00;2.27;;;1.23;;
846;SDS011;410;48.954;9.474;2024-02-26T11:08:05;2.40;;;1.43;;
846;SDS011;410;48.954;9.474;2024-02-26T11:10:08;2.33;;;0.90;;
846;SDS011;410;48.954;9.474;2024-02-26T11:12:14;2.30;;;1.40;;
846;SDS011;410;48.954;9.474;2024-02-26T11:14:20;2.50;;;1.07;;
846;SDS011;410;48.954;9.474;2024-02-26T11:16:27;2.57;;;1.27;;
846;SDS011;410;48.954;9.474;2024-02-26T11:18:31;2.30;;;1.17;;
846;SDS011;410;48.954;9.474;2024-02-26T11:20:34;2.43;;;1.40;;
846;SDS011;410;48.954;9.474;2024-02-26T11:22:41;4.13;;;1.40;;
846;SDS011;410;48.954;9.474;2024-02-26T11:24:44;3.67;;;2.07;;
846;SDS011;410;48.954;9.474;2024-02-26T11:26:48;3.17;;;1.50;;
846;SDS011;410;48.954;9.474;2024-02-26T11:28:55;2.47;;;1.57;;
846;SDS011;410;48.954;9.474;2024-02-26T11:30:58;2.87;;;1.60;;
846;SDS011;410;48.954;9.474;2024-02-26T11:33:01;3.73;;;1.80;;
846;SDS011;410;48.954;9.474;2024-02-26T11:35:05;3.03;;;1.60;;
846;SDS011;410;48.954;9.474;2024-02-26T11:37:12;2.77;;;1.43;;
846;SDS011;410;48.954;9.474;2024-02-26T11:39:16;4.23;;;1.80;;
846;SDS011;410;48.954;9.474;2024-02-26T11:41:20;4.20;;;1.73;;
846;SDS011;410;48.954;9.474;2024-02-26T11:43:23;3.00;;;1.50;;
846;SDS011;410;48.954;9.474;2024-02-26T11:47:55;3.30;;;1.50;;
846;SDS011;410;48.954;9.474;2024-02-26T11:49:59;4.30;;;1.90;;
846;SDS011;410;48.954;9.474;2024-02-26T11:52:04;2.97;;;1.83;;
846;SDS011;410;48.954;9.474;2024-02-26T11:54:08;2.67;;;1.80;;
846;SDS011;410;48.954;9.474;2024-02-26T11:56:21;3.03;;;1.60;;
846;SDS011;410;48.954;9.474;2024-02-26T11:58:30;4.33;;;2.70;;
846;SDS011;410;48.954;9.474;2024-02-26T12:00:34;5.33;;;2.90;;
846;SDS011;410;48.954;9.474;2024-02-26T12:02:39;4.27;;;2.27;;
846;SDS011;410;48.954;9.474;2024-02-26T12:04:41;4.20;;;2.63;;
846;SDS011;410;48.954;9.474;2024-02-26T12:06:46;5.43;;;2.33;;
846;SDS011;410;48.954;9.474;2024-02-26T12:08:50;6.83;;;3.20;;
846;SDS011;410;48.954;9.474;2024-02-26T12:10:54;5.50;;;2.00;;
846;SDS011;410;48.954;9.474;2024-02-26T12:13:00;4.40;;;2.60;;
846;SDS011;410;48.954;9.474;2024-02-26T12:15:05;4.70;;;2.93;;
846;SDS011;410;48.954;9.474;2024-02-26T12:17:18;4.30;;;2.20;;
846;SDS011;410;48.954;9.474;2024-02-26T12:19:24;4.33;;;2.10;;
846;SDS011;410;48.954;9.474;2024-02-26T12:21:27;4.17;;;2.40;;
846;SDS011;410;48.954;9.474;2024-02-26T12:23:30;4.07;;;2.47;;
846;SDS011;410;48.954;9.474;2024-02-26T12:25:33;8.63;;;4.77;;
846;SDS011;410;48.954;9.474;2024-02-26T12:27:37;4.77;;;2.10;;
846;SDS011;410;48.954;9.474;2024-02-26T12:29:39;3.60;;;2.10;;
846;SDS011;410;48.954;9.474;2024-02-26T12:31:42;2.90;;;1.73;;
846;SDS011;410;48.954;9.474;2024-02-26T12:33:46;2.60;;;1.67;;
846;SDS011;410;48.954;9.474;2024-02-26T12:35:51;3.07;;;1.70;;
846;SDS011;410;48.954;9.474;2024-02-26T12:37:54;2.63;;;1.43;;
846;SDS011;410;48.954;9.474;2024-02-26T12:39:57;4.30;;;2.07;;
846;SDS011;410;48.954;9.474;2024-02-26T12:41:59;4.20;;;2.17;;
846;SDS011;410;48.954;9.474;2024-02-26T12:44:09;3.30;;;1.93;;
846;SDS011;410;48.954;9.474;2024-02-26T12:46:12;4.70;;;3.30;;
846;SDS011;410;48.954;9.474;2024-02-26T12:48:18;3.93;;;1.80;;
846;SDS011;410;48.954;9.474;2024-02-26T12:50:22;2.63;;;1.73;;
846;SDS011;410;48.954;9.474;2024-02-26T12:52:27;3.10;;;1.77;;
846;SDS011;410;48.954;9.474;2024-02-26T12:54:31;4.17;;;2.20;;
846;SDS011;410;48.954;9.474;2024-02-26T12:56:36;2.73;;;1.50;;
846;SDS011;410;48.954;9.474;2024-02-26T12:58:39;2.37;;;1.20;;
846;SDS011;410;48.954;9.474;2024-02-26T13:00:43;2.57;;;1.30;;
846;SDS011;410;48.954;9.474;2024-02-26T13:02:46;3.40;;;1.40;;
846;SDS011;410;48.954;9.474;2024-02-26T13:04:49;2.33;;;1.20;;
846;SDS011;410;48.954;9.474;2024-02-26T13:06:53;2.13;;;1.20;;
846;SDS011;410;48.954;9.474;2024-02-26T13:08:57;2.00;;;1.00;;
846;SDS011;410;48.954;9.474;2024-02-26T13:11:01;4.40;;;1.20;;
846;SDS011;410;48.954;9.474;2024-02-26T13:13:04;2.00;;;0.83;;
846;SDS011;410;48.954;9.474;2024-02-26T13:15:08;1.90;;;0.60;;
846;SDS011;410;48.954;9.474;2024-02-26T13:17:21;1.70;;;0.50;;
846;SDS011;410;48.954;9.474;2024-02-26T13:19:27;1.60;;;0.50;;